Time;durP1;ratioP1;P1;durP2;ratioP2;P2;SDS_P1;SDS_P2;PMS_P1;PMS_P2;Temp;Humidity;BMP_temperature;BMP_pressure;BME280_temperature;BME280_humidity;BME280_pressure;Samples;Min_cycle;Max_cycle;Signal;HPM_P1;HPM_P2
2023/09/14 00:00:45;;;;;;;3.37;2.27;;;12.80;1.00;;;;;;5080505;28;20168;-85
2023/09/14 00:03:10;;;;;;;3.63;2.50;;;12.80;1.00;;;;;;5081426;28;20283;-85
2023/09/14 00:05:40;;;;;;;3.03;2.50;;;12.80;1.00;;;;;;5081159;28;20218;-85
2023/09/14 00:08:05;;;;;;;2.37;2.17;;;12.90;1.00;;;;;;5098507;28;20298;-85
2023/09/14 00:10:32;;;;;;;3.90;2.23;;;13.00;1.00;;;;;;5080684;28;20254;-84
2023/09/14 00:12:58;;;;;;;2.60;2.37;;;13.10;1.00;;;;;;5080764;28;20172;-85
2023/09/14 00:15:24;;;;;;;6.17;2.50;;;13.00;1.00;;;;;;5080383;28;20203;-85
2023/09/14 00:17:49;;;;;;;5.00;2.10;;;12.70;1.00;;;;;;5098774;28;20184;-85
2023/09/14 00:20:20;;;;;;;3.50;2.30;;;12.50;1.00;;;;;;5099016;28;20165;-84
2023/09/14 00:22:46;;;;;;;3.10;2.30;;;12.40;1.00;;;;;;5099380;28;20172;-85
2023/09/14 00:25:12;;;;;;;3.50;2.40;;;12.30;1.00;;;;;;5081531;28;20182;-84
2023/09/14 00:27:37;;;;;;;3.23;2.30;;;12.40;67.90;;;;;;5099231;28;20223;-85
2023/09/14 00:30:03;;;;;;;7.43;2.43;;;12.40;1.00;;;;;;5099464;28;20261;-85
2023/09/14 00:32:29;;;;;;;2.77;2.20;;;12.30;39.60;;;;;;5098449;28;20172;-85
2023/09/14 00:34:54;;;;;;;3.27;2.40;;;12.40;17.80;;;;;;5098924;28;20179;-85
2023/09/14 00:37:20;;;;;;;2.90;2.30;;;12.40;3.20;;;;;;5098832;28;20246;-85
2023/09/14 00:39:45;;;;;;;2.93;2.10;;;12.30;1.00;;;;;;5099080;28;20179;-85
2023/09/14 00:42:11;;;;;;;4.07;2.13;;;12.20;1.00;;;;;;5080421;28;20198;-85
2023/09/14 00:44:37;;;;;;;5.07;2.50;;;12.10;13.40;;;;;;5080973;28;20172;-86
2023/09/14 00:47:03;;;;;;;3.30;2.30;;;12.00;7.50;;;;;;5080735;28;20204;-85
2023/09/14 00:49:28;;;;;;;5.93;2.60;;;12.10;99.90;;;;;;5080745;28;20728;-85
2023/09/14 00:51:54;;;;;;;2.93;2.40;;;12.20;99.90;;;;;;5080772;28;20207;-85
2023/09/14 00:54:20;;;;;;;4.37;2.53;;;12.10;99.90;;;;;;5080562;28;20185;-85
2023/09/14 00:56:46;;;;;;;3.27;2.60;;;12.10;22.70;;;;;;5079976;28;20312;-85
2023/09/14 00:59:12;;;;;;;4.73;2.17;;;12.20;39.30;;;;;;5079917;28;20176;-85
2023/09/14 01:01:38;;;;;;;3.23;2.37;;;12.30;56.70;;;;;;5097611;28;20225;-86
2023/09/14 01:04:05;;;;;;;2.80;2.33;;;12.20;30.90;;;;;;5098003;28;20220;-86
2023/09/14 01:06:32;;;;;;;4.10;2.33;;;12.20;81.50;;;;;;5098323;28;20196;-85
2023/09/14 01:08:58;;;;;;;3.77;2.40;;;12.30;7.00;;;;;;5081241;28;20203;-85
2023/09/14 01:11:23;;;;;;;3.30;2.40;;;12.30;11.90;;;;;;5080295;28;20184;-86
2023/09/14 01:14:00;;;;;;;3.33;2.30;;;12.40;21.50;;;;;;5098296;28;20183;-85
2023/09/14 01:16:42;;;;;;;3.73;2.60;;;12.50;1.00;;;;;;5098351;28;20286;-86
2023/09/14 01:19:29;;;;;;;3.27;2.40;;;12.70;1.00;;;;;;5080254;28;20263;-85
2023/09/14 01:22:13;;;;;;;2.57;2.20;;;12.70;1.00;;;;;;5079888;28;20179;-85
2023/09/14 01:24:50;;;;;;;4.23;2.67;;;12.50;1.00;;;;;;5097807;28;20522;-85
2023/09/14 01:27:16;;;;;;;4.67;2.83;;;12.40;1.00;;;;;;5098215;28;20283;-85
2023/09/14 01:29:41;;;;;;;3.30;2.40;;;12.30;1.00;;;;;;5080254;28;20200;-85
2023/09/14 01:32:07;;;;;;;3.57;2.50;;;12.40;1.00;;;;;;5080319;28;20570;-85
2023/09/14 01:34:33;;;;;;;2.87;2.43;;;12.50;1.00;;;;;;5079870;28;20179;-85
2023/09/14 01:37:03;;;;;;;2.73;2.33;;;12.50;1.00;;;;;;5079778;28;20214;-85
2023/09/14 01:39:30;;;;;;;5.13;2.80;;;12.40;1.00;;;;;;5097415;28;20168;-85
2023/09/14 01:41:57;;;;;;;4.30;2.30;;;12.20;1.00;;;;;;5098231;28;20191;-85
2023/09/14 01:44:26;;;;;;;3.03;2.27;;;12.20;1.00;;;;;;5097465;28;20651;-86
2023/09/14 01:46:53;;;;;;;2.37;2.17;;;11.90;1.00;;;;;;5098011;28;20188;-85
2023/09/14 01:49:19;;;;;;;3.63;2.43;;;12.00;1.00;;;;;;5079762;28;20168;-85
2023/09/14 01:51:44;;;;;;;2.90;2.30;;;12.10;1.00;;;;;;5079364;28;20179;-85
2023/09/14 01:54:10;;;;;;;4.43;2.73;;;12.20;1.00;;;;;;5097348;28;20178;-85
2023/09/14 01:56:36;;;;;;;4.70;2.20;;;12.10;1.00;;;;;;5078893;28;20254;-85
2023/09/14 01:59:02;;;;;;;5.23;2.70;;;12.10;1.00;;;;;;5079929;28;20180;-85
2023/09/14 02:01:27;;;;;;;3.27;2.50;;;12.10;1.00;;;;;;5079626;28;20169;-85
2023/09/14 02:03:53;;;;;;;3.23;2.43;;;12.20;1.00;;;;;;5079883;28;20171;-86
2023/09/14 02:06:19;;;;;;;3.50;2.40;;;12.10;1.00;;;;;;5078848;28;20200;-86
2023/09/14 02:08:46;;;;;;;4.10;2.40;;;11.90;1.00;;;;;;5079060;28;20183;-85
2023/09/14 02:11:13;;;;;;;2.60;2.37;;;12.00;1.00;;;;;;5097418;28;20222;-86
2023/09/14 02:13:39;;;;;;;4.40;2.70;;;11.80;1.00;;;;;;5096885;28;20255;-85
2023/09/14 02:16:05;;;;;;;3.30;2.40;;;11.80;1.00;;;;;;5079281;28;20203;-85
2023/09/14 02:18:31;;;;;;;3.63;2.47;;;11.60;1.00;;;;;;5097100;28;20168;-86
2023/09/14 02:20:56;;;;;;;2.70;2.20;;;11.50;99.90;;;;;;5079080;28;20172;-86
2023/09/14 02:23:22;;;;;;;3.57;2.20;;;11.50;99.90;;;;;;5078969;28;20275;-85
2023/09/14 02:25:49;;;;;;;2.63;2.10;;;11.40;99.50;;;;;;5079444;28;20229;-86
2023/09/14 02:28:15;;;;;;;3.87;2.43;;;11.30;99.90;;;;;;5097225;28;20203;-85
2023/09/14 02:30:41;;;;;;;3.10;2.43;;;11.30;99.90;;;;;;5079317;28;20557;-85
2023/09/14 02:33:07;;;;;;;4.33;2.20;;;11.30;99.90;;;;;;5097275;28;20172;-85
2023/09/14 02:35:34;;;;;;;3.43;2.20;;;11.40;95.30;;;;;;5079181;28;20221;-85
2023/09/14 02:38:00;;;;;;;3.97;2.50;;;11.30;5.20;;;;;;5096722;28;20188;-85
2023/09/14 02:40:25;;;;;;;3.67;2.53;;;11.40;99.90;;;;;;5097313;28;20238;-85
2023/09/14 02:42:51;;;;;;;3.23;2.00;;;11.40;99.90;;;;;;5097738;28;20176;-85
2023/09/14 02:45:16;;;;;;;3.27;2.40;;;11.50;99.90;;;;;;5097151;28;20172;-85
2023/09/14 02:47:42;;;;;;;3.83;2.10;;;11.60;33.40;;;;;;5096984;28;20572;-85
2023/09/14 02:50:07;;;;;;;3.30;2.20;;;11.50;1.00;;;;;;5097103;28;20223;-86
2023/09/14 02:52:33;;;;;;;2.70;1.90;;;11.30;1.00;;;;;;5078949;28;20172;-86
2023/09/14 02:54:59;;;;;;;2.57;1.93;;;11.20;1.00;;;;;;5097483;28;20168;-85
2023/09/14 02:57:25;;;;;;;2.73;2.00;;;11.20;1.00;;;;;;5079545;28;20199;-86
2023/09/14 02:59:57;;;;;;;4.90;2.20;;;11.20;77.60;;;;;;5096892;28;20172;-85
2023/09/14 03:02:22;;;;;;;3.10;2.10;;;11.40;51.80;;;;;;5097604;28;20171;-85
2023/09/14 03:04:48;;;;;;;4.47;2.50;;;11.40;5.80;;;;;;5096567;28;20162;-85
2023/09/14 03:07:15;;;;;;;2.80;2.20;;;11.30;1.00;;;;;;5096903;28;20284;-85
2023/09/14 03:09:40;;;;;;;7.10;2.40;;;11.10;20.30;;;;;;5079345;28;20270;-85
2023/09/14 03:12:06;;;;;;;3.23;2.40;;;11.10;88.50;;;;;;5096731;28;20207;-85
2023/09/14 03:14:32;;;;;;;2.73;2.17;;;11.00;99.90;;;;;;5078830;28;20179;-85
2023/09/14 03:16:58;;;;;;;4.87;2.37;;;11.10;99.90;;;;;;5079147;28;20302;-85
2023/09/14 03:19:26;;;;;;;2.10;1.87;;;11.20;99.90;;;;;;5078906;28;20180;-85
2023/09/14 03:21:52;;;;;;;2.77;1.90;;;11.30;18.50;;;;;;5097544;28;20658;-85
2023/09/14 03:24:19;;;;;;;2.23;1.93;;;11.20;1.00;;;;;;5078683;28;20169;-85
2023/09/14 03:26:46;;;;;;;5.43;2.20;;;11.00;1.00;;;;;;5082795;28;20263;-85
2023/09/14 03:29:12;;;;;;;2.30;2.00;;;11.00;27.00;;;;;;5101541;28;20174;-86
2023/09/14 03:31:37;;;;;;;3.33;2.27;;;10.90;90.30;;;;;;5082623;28;20567;-86
2023/09/14 03:34:04;;;;;;;2.70;2.20;;;11.00;91.00;;;;;;5089445;28;20268;-85
2023/09/14 03:36:30;;;;;;;3.03;1.97;;;11.20;1.00;;;;;;5098092;28;20227;-85
2023/09/14 03:38:55;;;;;;;2.63;1.93;;;11.20;1.00;;;;;;5083113;28;20177;-85
2023/09/14 03:41:21;;;;;;;2.73;2.13;;;11.10;3.90;;;;;;5073380;28;20275;-85
2023/09/14 03:43:46;;;;;;;3.77;2.30;;;11.00;27.90;;;;;;5079481;28;20175;-85
2023/09/14 03:46:14;;;;;;;2.57;2.27;;;11.00;66.80;;;;;;5080292;28;20311;-85
2023/09/14 03:48:40;;;;;;;4.30;2.00;;;11.00;33.10;;;;;;5062453;28;20177;-86
2023/09/14 03:51:06;;;;;;;3.53;2.00;;;10.90;4.10;;;;;;5080019;28;20184;-85
2023/09/14 03:53:32;;;;;;;5.80;2.37;;;10.70;66.30;;;;;;5062840;28;20231;-84
2023/09/14 03:55:59;;;;;;;2.60;2.40;;;10.70;99.90;;;;;;5062917;28;20195;-86
2023/09/14 03:58:26;;;;;;;2.73;2.13;;;10.50;99.90;;;;;;5062627;28;20247;-85
2023/09/14 04:00:51;;;;;;;2.13;1.93;;;10.60;99.90;;;;;;5079979;28;20179;-85
2023/09/14 04:03:18;;;;;;;2.40;2.20;;;10.50;31.70;;;;;;5061994;28;20186;-85
2023/09/14 04:05:44;;;;;;;3.00;2.10;;;10.50;99.90;;;;;;5061837;28;20182;-85
2023/09/14 04:08:09;;;;;;;2.47;2.00;;;10.50;99.90;;;;;;5062111;28;20217;-85
2023/09/14 04:10:39;;;;;;;5.33;1.93;;;10.50;98.00;;;;;;5080044;28;20178;-85
2023/09/14 04:13:32;;;;;;;2.83;1.93;;;10.50;99.90;;;;;;5061929;28;20177;-85
2023/09/14 04:15:58;;;;;;;3.87;1.90;;;10.40;99.90;;;;;;5080401;28;20220;-85
2023/09/14 04:18:24;;;;;;;3.30;1.70;;;10.30;1.00;;;;;;5061670;28;20194;-85
2023/09/14 04:20:51;;;;;;;3.07;2.20;;;10.20;59.20;;;;;;5079981;28;20177;-85
2023/09/14 04:23:17;;;;;;;3.30;2.60;;;10.10;99.90;;;;;;5062296;28;20178;-85
2023/09/14 04:25:46;;;;;;;2.90;1.90;;;10.20;99.90;;;;;;5080259;28;20196;-85
2023/09/14 04:28:17;;;;;;;2.53;1.90;;;10.20;99.90;;;;;;5072826;28;20204;-85
2023/09/14 04:30:43;;;;;;;2.67;1.90;;;10.20;99.90;;;;;;5079460;28;20242;-85
2023/09/14 04:33:13;;;;;;;3.23;1.97;;;10.10;99.90;;;;;;5078370;28;20182;-85
2023/09/14 04:35:38;;;;;;;2.73;2.30;;;10.00;99.90;;;;;;5079683;28;20675;-85
2023/09/14 04:38:06;;;;;;;3.50;2.30;;;10.00;99.90;;;;;;5078578;28;20213;-85
2023/09/14 04:40:31;;;;;;;3.60;2.13;;;10.30;99.90;;;;;;5078976;28;20177;-85
2023/09/14 04:42:57;;;;;;;4.30;2.30;;;10.40;99.90;;;;;;5078132;28;20227;-85
2023/09/14 04:45:23;;;;;;;4.07;2.40;;;10.40;99.90;;;;;;5080017;28;20177;-85
2023/09/14 04:47:48;;;;;;;2.93;2.40;;;10.30;90.10;;;;;;5079664;28;20207;-85
2023/09/14 04:50:14;;;;;;;4.80;2.70;;;10.30;99.90;;;;;;5079137;28;20212;-86
2023/09/14 04:52:39;;;;;;;3.17;2.50;;;10.30;99.90;;;;;;5078048;28;20180;-85
2023/09/14 04:55:06;;;;;;;4.13;1.97;;;10.20;99.90;;;;;;5078433;28;20205;-85
2023/09/14 04:57:32;;;;;;;2.10;1.90;;;10.40;99.90;;;;;;5078754;28;20197;-85
2023/09/14 04:59:57;;;;;;;4.17;2.03;;;10.50;36.70;;;;;;5077908;28;20184;-85
2023/09/14 05:02:23;;;;;;;3.60;2.30;;;10.40;1.00;;;;;;5077353;28;20310;-85
2023/09/14 05:04:48;;;;;;;3.30;2.27;;;10.30;1.00;;;;;;5077634;28;20198;-85
2023/09/14 05:07:14;;;;;;;3.10;2.00;;;10.20;54.70;;;;;;5077598;28;20213;-85
2023/09/14 05:09:39;;;;;;;3.83;1.93;;;10.10;99.90;;;;;;5079188;28;20710;-86
2023/09/14 05:12:05;;;;;;;2.67;1.87;;;10.10;27.10;;;;;;5074046;28;20706;-83
2023/09/14 05:14:31;;;;;;;3.77;2.07;;;10.00;25.40;;;;;;5072635;28;20192;-84
2023/09/14 05:16:56;;;;;;;3.80;1.90;;;10.00;78.60;;;;;;5073862;28;20235;-86
2023/09/14 05:19:22;;;;;;;3.33;2.07;;;9.90;99.90;;;;;;5072461;28;20169;-84
2023/09/14 05:21:47;;;;;;;3.00;2.40;;;9.90;99.90;;;;;;5073725;28;20169;-84
2023/09/14 05:24:13;;;;;;;4.27;2.30;;;9.90;99.90;;;;;;5072450;28;20169;-84
2023/09/14 05:26:39;;;;;;;3.70;2.10;;;9.90;99.90;;;;;;5072308;28;20197;-86
2023/09/14 05:29:04;;;;;;;4.00;2.10;;;10.10;99.90;;;;;;5074305;28;20268;-84
2023/09/14 05:31:30;;;;;;;2.50;2.30;;;10.20;99.90;;;;;;5072553;28;20181;-84
2023/09/14 05:33:55;;;;;;;2.97;2.20;;;10.80;99.90;;;;;;5073091;28;20555;-83
2023/09/14 05:36:21;;;;;;;3.37;2.20;;;10.90;99.90;;;;;;5072566;28;20209;-86
2023/09/14 05:38:48;;;;;;;2.47;1.93;;;10.70;99.90;;;;;;5073614;28;20175;-84
2023/09/14 05:41:14;;;;;;;4.47;2.20;;;10.70;99.90;;;;;;5073225;28;20228;-81
2023/09/14 05:43:39;;;;;;;4.80;2.87;;;11.00;99.90;;;;;;5074489;28;20208;-86
2023/09/14 05:46:05;;;;;;;2.60;2.23;;;15.20;99.90;;;;;;5072830;28;20570;-85
2023/09/14 05:48:30;;;;;;;3.00;2.20;;;14.70;99.90;;;;;;5071698;28;20176;-87
2023/09/14 05:50:56;;;;;;;2.80;2.07;;;14.50;99.90;;;;;;5073908;28;20246;-82
2023/09/14 05:53:21;;;;;;;4.70;2.10;;;14.20;99.90;;;;;;5074474;28;20188;-83
2023/09/14 05:55:47;;;;;;;2.77;2.20;;;14.10;99.90;;;;;;5056761;28;20215;-83
2023/09/14 05:58:12;;;;;;;2.93;2.37;;;14.50;99.90;;;;;;5073857;28;20189;-83
2023/09/14 06:00:38;;;;;;;2.27;2.00;;;14.90;99.90;;;;;;5073780;28;20177;-85
2023/09/14 06:03:04;;;;;;;2.10;1.90;;;14.90;99.90;;;;;;5055233;28;20219;-86
2023/09/14 06:05:29;;;;;;;3.67;2.17;;;14.50;99.90;;;;;;5072914;28;20180;-86
2023/09/14 06:07:55;;;;;;;3.30;2.23;;;14.20;99.90;;;;;;5075603;28;20274;-82
2023/09/14 06:10:21;;;;;;;2.70;2.07;;;14.00;99.90;;;;;;5057536;28;20182;-82
2023/09/14 06:12:46;;;;;;;3.63;2.10;;;14.50;99.90;;;;;;5076964;28;20173;-82
2023/09/14 06:15:13;;;;;;;2.57;2.03;;;14.60;99.90;;;;;;5080824;28;20271;-82
2023/09/14 06:17:38;;;;;;;4.97;2.07;;;14.30;99.90;;;;;;5081227;28;20230;-82
2023/09/14 06:20:05;;;;;;;2.30;2.10;;;14.50;99.90;;;;;;5063976;28;20177;-83
2023/09/14 06:22:31;;;;;;;2.87;2.10;;;14.70;99.90;;;;;;5062789;28;20173;-82
2023/09/14 06:24:57;;;;;;;2.80;1.80;;;14.70;99.90;;;;;;5072661;28;20165;-82
2023/09/14 06:27:22;;;;;;;2.87;2.37;;;15.10;99.90;;;;;;5073044;28;20341;-82
2023/09/14 06:29:48;;;;;;;3.53;2.00;;;15.40;99.90;;;;;;5072936;28;20173;-81
2023/09/14 06:32:13;;;;;;;2.83;2.50;;;15.60;99.90;;;;;;5054740;28;20165;-82
2023/09/14 06:34:39;;;;;;;3.73;2.87;;;15.60;1.00;;;;;;5072381;28;20177;-81
2023/09/14 06:37:04;;;;;;;3.83;3.10;;;15.30;99.90;;;;;;5073052;28;20211;-82
2023/09/14 06:39:30;;;;;;;4.30;3.43;;;14.40;99.90;;;;;;5054891;28;20165;-81
2023/09/14 06:41:55;;;;;;;3.30;3.00;;;13.60;6.40;;;;;;5057649;28;20222;-82
2023/09/14 06:44:23;;;;;;;3.67;3.07;;;13.30;99.90;;;;;;5057890;28;20169;-82
2023/09/14 06:46:49;;;;;;;4.90;3.50;;;13.30;99.90;;;;;;5054751;28;20192;-82
2023/09/14 06:49:14;;;;;;;5.30;3.30;;;13.30;99.90;;;;;;5054707;28;20257;-81
2023/09/14 06:51:40;;;;;;;4.83;3.23;;;13.40;48.80;;;;;;5054259;28;20269;-82
2023/09/14 06:54:05;;;;;;;4.00;2.90;;;13.10;99.90;;;;;;5054307;28;20259;-82
2023/09/14 06:56:31;;;;;;;3.50;3.20;;;12.70;99.90;;;;;;5054505;28;20204;-82
2023/09/14 06:58:57;;;;;;;4.70;3.40;;;13.10;99.90;;;;;;5072619;28;20173;-82
2023/09/14 07:01:23;;;;;;;4.00;2.70;;;14.00;99.90;;;;;;5053929;28;20176;-86
2023/09/14 07:03:50;;;;;;;2.87;2.40;;;15.60;99.90;;;;;;5071906;28;20544;-86
2023/09/14 07:06:16;;;;;;;2.73;1.97;;;16.20;99.90;;;;;;5053769;28;20600;-86
2023/09/14 07:08:41;;;;;;;4.07;2.60;;;17.80;1.00;;;;;;5072542;28;20185;-86
2023/09/14 07:11:07;;;;;;;3.50;2.93;;;17.80;98.60;;;;;;5071998;28;20567;-86
2023/09/14 07:13:33;;;;;;;3.90;2.73;;;17.60;1.00;;;;;;5071957;28;20636;-86
2023/09/14 07:15:58;;;;;;;6.37;3.03;;;17.30;99.90;;;;;;5071939;28;20197;-86
2023/09/14 07:18:29;;;;;;;4.83;2.93;;;16.70;1.00;;;;;;5053914;28;20253;-85
2023/09/14 07:20:56;;;;;;;4.67;3.33;;;17.00;99.90;;;;;;5071617;28;20219;-86
2023/09/14 07:23:22;;;;;;;4.80;2.70;;;17.10;99.90;;;;;;5071655;28;20731;-87
2023/09/14 07:25:48;;;;;;;3.57;2.67;;;17.40;1.00;;;;;;5072157;28;20184;-82
2023/09/14 07:28:16;;;;;;;3.43;2.60;;;18.10;1.00;;;;;;5065749;28;20196;-82
2023/09/14 07:30:42;;;;;;;3.77;2.67;;;18.70;99.90;;;;;;5069718;28;20204;-82
2023/09/14 07:33:10;;;;;;;3.73;2.47;;;18.80;1.00;;;;;;5060498;28;20204;-82
2023/09/14 07:35:35;;;;;;;4.83;2.70;;;19.10;1.00;;;;;;5053339;28;20203;-82
2023/09/14 07:38:01;;;;;;;4.20;2.50;;;18.40;99.90;;;;;;5072144;28;20193;-83
2023/09/14 07:40:26;;;;;;;5.03;3.40;;;18.00;1.00;;;;;;5071905;28;20177;-83
2023/09/14 07:42:52;;;;;;;6.83;3.30;;;18.10;1.20;;;;;;5042762;28;20192;-82
2023/09/14 07:45:17;;;;;;;3.20;2.57;;;17.70;1.00;;;;;;5042577;28;20182;-82
2023/09/14 07:47:43;;;;;;;4.73;3.20;;;17.50;1.00;;;;;;5062383;28;20241;-82
2023/09/14 07:50:12;;;;;;;5.03;3.30;;;17.40;99.90;;;;;;5064125;28;20181;-82
2023/09/14 07:52:37;;;;;;;4.27;3.43;;;16.60;99.90;;;;;;5044274;28;20181;-86
2023/09/14 07:55:04;;;;;;;5.87;3.63;;;16.40;99.90;;;;;;5045708;28;20177;-85
2023/09/14 07:57:29;;;;;;;4.40;2.67;;;16.40;1.00;;;;;;5071194;28;20263;-86
2023/09/14 07:59:55;;;;;;;4.20;2.77;;;16.10;99.90;;;;;;5053701;28;20213;-86
2023/09/14 08:02:21;;;;;;;4.13;2.40;;;16.40;1.00;;;;;;5053576;28;20184;-86
2023/09/14 08:04:46;;;;;;;3.73;2.57;;;17.00;1.00;;;;;;5071514;28;20183;-85
2023/09/14 08:07:12;;;;;;;4.60;2.87;;;17.80;33.40;;;;;;5071479;28;20212;-86
2023/09/14 08:09:37;;;;;;;6.40;3.20;;;17.70;1.00;;;;;;5071545;28;20633;-86
2023/09/14 08:12:03;;;;;;;4.93;2.80;;;17.80;1.00;;;;;;5054306;28;20649;-86
2023/09/14 08:14:29;;;;;;;3.93;2.70;;;17.70;12.40;;;;;;5075131;28;20184;-86
2023/09/14 08:16:54;;;;;;;5.07;2.87;;;17.70;31.90;;;;;;5067152;28;20280;-85
2023/09/14 08:19:20;;;;;;;5.47;2.87;;;17.90;99.90;;;;;;5057550;28;20173;-85
2023/09/14 08:21:45;;;;;;;5.27;2.43;;;17.10;99.90;;;;;;5075211;28;20169;-86
2023/09/14 08:24:11;;;;;;;2.47;1.90;;;17.20;1.00;;;;;;5057298;28;20178;-85
2023/09/14 08:26:36;;;;;;;2.83;2.00;;;17.80;1.00;;;;;;5057454;28;20204;-85
2023/09/14 08:29:02;;;;;;;3.70;2.10;;;18.20;99.90;;;;;;5075029;28;20268;-85
2023/09/14 08:31:28;;;;;;;4.60;2.50;;;18.40;99.90;;;;;;5057379;28;20208;-85
2023/09/14 08:33:53;;;;;;;4.97;2.50;;;18.00;1.00;;;;;;5075342;28;20183;-85
2023/09/14 08:36:19;;;;;;;6.93;2.77;;;18.10;1.00;;;;;;5057258;28;20200;-85
2023/09/14 08:38:44;;;;;;;3.30;2.30;;;18.50;99.90;;;;;;5075115;28;20173;-85
2023/09/14 08:41:26;;;;;;;3.67;2.23;;;18.40;1.00;;;;;;5056998;28;20176;-85
2023/09/14 08:43:53;;;;;;;3.60;2.27;;;18.70;99.90;;;;;;5075095;28;20157;-85
2023/09/14 08:46:20;;;;;;;3.13;2.30;;;18.50;79.90;;;;;;5057060;28;20272;-85
2023/09/14 08:48:47;;;;;;;4.23;2.20;;;18.70;1.00;;;;;;5075038;28;20185;-85
2023/09/14 08:51:13;;;;;;;6.23;2.30;;;19.00;1.00;;;;;;5074660;28;20180;-85
2023/09/14 08:53:40;;;;;;;5.00;2.27;;;19.20;99.90;;;;;;5074961;28;20264;-85
2023/09/14 08:56:07;;;;;;;4.80;2.07;;;19.10;99.90;;;;;;5057114;28;20295;-84
2023/09/14 08:58:34;;;;;;;3.77;2.10;;;18.90;99.90;;;;;;5056702;28;20169;-84
2023/09/14 09:01:02;;;;;;;5.37;2.17;;;18.90;99.90;;;;;;5074696;28;20177;-83
2023/09/14 09:03:28;;;;;;;5.50;2.00;;;18.80;99.90;;;;;;5048192;28;20186;-86
2023/09/14 09:05:54;;;;;;;5.47;2.10;;;18.80;99.90;;;;;;5048280;28;20192;-86
2023/09/14 09:08:20;;;;;;;6.50;2.40;;;18.80;1.00;;;;;;5048198;28;20224;-84
2023/09/14 09:10:47;;;;;;;4.50;2.03;;;18.70;1.00;;;;;;5060731;28;20184;-84
2023/09/14 09:13:13;;;;;;;4.43;1.80;;;18.10;1.00;;;;;;5056533;28;20258;-85
2023/09/14 09:15:38;;;;;;;5.87;2.20;;;17.80;99.90;;;;;;5056602;28;20238;-84
2023/09/14 09:18:07;;;;;;;7.20;2.20;;;17.40;99.90;;;;;;5074381;28;20217;-81
2023/09/14 09:20:34;;;;;;;4.93;2.40;;;17.20;99.90;;;;;;5074362;28;20173;-84
2023/09/14 09:23:01;;;;;;;6.43;2.93;;;17.60;1.00;;;;;;5056015;28;20201;-84
2023/09/14 09:25:29;;;;;;;6.87;2.37;;;18.00;99.90;;;;;;5074518;28;20696;-85
2023/09/14 09:27:58;;;;;;;4.17;1.93;;;18.50;99.90;;;;;;5056725;28;20189;-83
2023/09/14 09:30:29;;;;;;;338.33;112.47;;;19.00;1.00;;;;;;5074090;28;20192;-86
2023/09/14 09:32:55;;;;;;;18.70;7.27;;;19.20;1.00;;;;;;5056465;28;20560;-86
2023/09/14 09:35:27;;;;;;;55.93;17.27;;;19.90;1.00;;;;;;5074169;28;20200;-85
2023/09/14 09:37:54;;;;;;;31.57;11.53;;;20.10;1.00;;;;;;5056394;28;20223;-82
2023/09/14 09:40:24;;;;;;;7.10;3.40;;;20.10;1.00;;;;;;5073849;28;20173;-86
2023/09/14 09:42:53;;;;;;;5.63;2.23;;;20.10;99.90;;;;;;5056342;28;20177;-87
2023/09/14 09:45:23;;;;;;;9.10;3.33;;;20.00;4.80;;;;;;5056330;28;20169;-85
2023/09/14 09:47:49;;;;;;;4.78;2.35;;;20.20;1.00;;;;;;5056068;28;20185;-86
2023/09/14 09:50:19;;;;;;;3.75;2.10;;;20.20;1.00;;;;;;5074031;28;20173;-87
2023/09/14 09:52:46;;;;;;;8.65;2.65;;;20.20;1.00;;;;;;5073945;28;20176;-86
2023/09/14 09:55:20;;;;;;;3.75;2.00;;;20.60;1.00;;;;;;5056176;28;20165;-86
2023/09/14 09:57:57;;;;;;;4.97;2.55;;;20.70;99.90;;;;;;5073642;28;20192;-87
2023/09/14 10:00:31;;;;;;;7.75;2.45;;;21.10;99.90;;;;;;5057237;28;20164;-84
2023/09/14 10:02:58;;;;;;;6.75;2.20;;;21.20;1.00;;;;;;5055933;28;20160;-86
2023/09/14 10:05:31;;;;;;;6.20;3.50;;;20.80;99.90;;;;;;5056899;28;20256;-89
2023/09/14 10:07:58;;;;;;;5.88;2.22;;;20.70;99.90;;;;;;5073511;28;20205;-88
2023/09/14 10:10:31;;;;;;;5.25;1.73;;;20.80;99.90;;;;;;5055395;28;20192;-84
2023/09/14 10:13:00;;;;;;;5.72;1.90;;;20.70;1.00;;;;;;5055680;28;20161;-84
2023/09/14 10:15:27;;;;;;;4.25;1.95;;;20.80;99.90;;;;;;5055969;28;20197;-84
2023/09/14 10:17:57;;;;;;;4.90;2.17;;;21.10;99.90;;;;;;5055355;28;20750;-86
2023/09/14 10:20:26;;;;;;;5.47;2.00;;;21.40;1.00;;;;;;5055339;28;20180;-89
2023/09/14 10:22:52;;;;;;;4.10;1.70;;;21.20;99.90;;;;;;5074120;28;20264;-87
2023/09/14 10:25:20;;;;;;;3.88;2.30;;;21.30;51.60;;;;;;5076030;28;20200;-83
2023/09/14 10:27:46;;;;;;;3.38;1.60;;;21.20;1.00;;;;;;5171823;22;20231;-85
2023/09/14 10:30:18;;;;;;;4.32;1.83;;;21.40;1.00;;;;;;5074993;28;20164;-83
2023/09/14 10:32:48;;;;;;;3.60;1.80;;;21.10;1.00;;;;;;5074855;28;20236;-83
2023/09/14 10:35:13;;;;;;;2.60;1.70;;;20.80;99.90;;;;;;5074694;28;20172;-84
2023/09/14 10:37:43;;;;;;;4.13;1.85;;;21.00;1.00;;;;;;5093397;28;20218;-84
2023/09/14 10:40:11;;;;;;;3.22;1.60;;;21.50;1.00;;;;;;5075094;28;20180;-83
2023/09/14 10:42:37;;;;;;;3.28;1.67;;;21.50;99.90;;;;;;5074652;28;20176;-84
2023/09/14 10:45:04;;;;;;;5.88;2.03;;;21.80;1.00;;;;;;5093086;28;20666;-84
2023/09/14 10:47:36;;;;;;;4.45;1.95;;;22.00;38.30;;;;;;5074687;28;20611;-84
2023/09/14 10:50:04;;;;;;;4.38;1.95;;;21.80;1.00;;;;;;5093066;28;20156;-84
2023/09/14 10:52:29;;;;;;;4.55;1.85;;;21.80;1.00;;;;;;5074442;28;20187;-84
2023/09/14 10:54:56;;;;;;;3.78;1.80;;;22.10;1.00;;;;;;5074865;28;20176;-84
2023/09/14 10:57:24;;;;;;;5.22;1.80;;;22.30;8.80;;;;;;5074837;28;20755;-84
2023/09/14 10:59:54;;;;;;;4.28;1.88;;;22.30;1.00;;;;;;5092658;28;20172;-84
2023/09/14 11:02:45;;;;;;;6.05;1.60;;;22.40;1.00;;;;;;5074549;28;20164;-84
2023/09/14 11:05:14;;;;;;;3.88;1.60;;;21.80;1.00;;;;;;5092977;28;20210;-84
2023/09/14 11:07:44;;;;;;;4.38;2.05;;;22.10;1.00;;;;;;5074438;28;20291;-84
2023/09/14 11:10:13;;;;;;;3.60;1.50;;;22.20;1.00;;;;;;5092975;28;20191;-84
2023/09/14 11:12:39;;;;;;;3.03;1.55;;;22.00;1.00;;;;;;5087324;28;20267;-84
2023/09/14 11:15:32;;;;;;;4.57;1.92;;;21.70;1.00;;;;;;5092106;28;20260;-83
2023/09/14 11:17:58;;;;;;;4.13;1.73;;;21.80;1.00;;;;;;5067145;28;20760;-84
2023/09/14 11:20:24;;;;;;;4.47;1.60;;;21.80;1.00;;;;;;5092224;28;20164;-83
2023/09/14 11:22:52;;;;;;;3.13;1.55;;;22.00;1.00;;;;;;5081030;28;20315;-87
2023/09/14 11:25:36;;;;;;;2.92;1.50;;;22.30;1.00;;;;;;5078983;28;20217;-87
2023/09/14 11:28:06;;;;;;;3.50;1.90;;;22.40;1.00;;;;;;5065971;28;20219;-88
2023/09/14 11:30:32;;;;;;;3.65;1.67;;;22.40;1.00;;;;;;5065496;28;20168;-87
2023/09/14 11:33:05;;;;;;;4.13;1.55;;;22.60;1.00;;;;;;5058615;28;20263;-83
2023/09/14 11:35:39;;;;;;;4.50;1.70;;;22.90;1.00;;;;;;5062824;28;20184;-86
2023/09/14 11:38:14;;;;;;;3.78;1.80;;;22.80;1.00;;;;;;5089829;28;20188;-86
2023/09/14 11:40:40;;;;;;;4.40;1.75;;;22.90;1.00;;;;;;5075684;28;20176;-87
2023/09/14 11:43:20;;;;;;;4.32;1.92;;;23.20;1.00;;;;;;5082084;28;20168;-86
2023/09/14 11:45:47;;;;;;;2.72;1.70;;;23.10;99.90;;;;;;5055373;28;20184;-86
2023/09/14 11:48:22;;;;;;;2.22;1.48;;;23.00;1.00;;;;;;5078685;28;20577;-87
2023/09/14 11:50:54;;;;;;;3.65;1.70;;;23.30;1.00;;;;;;5070992;28;20693;-85
2023/09/14 11:53:30;;;;;;;4.60;1.73;;;23.60;1.00;;;;;;5069435;28;20185;-87
2023/09/14 11:56:01;;;;;;;3.40;1.70;;;23.90;1.00;;;;;;5072555;28;20206;-86
2023/09/14 11:58:35;;;;;;;4.00;1.75;;;23.50;1.00;;;;;;5090631;28;20188;-83
2023/09/14 12:01:01;;;;;;;4.90;1.70;;;23.30;1.00;;;;;;5073470;28;20169;-84
2023/09/14 12:03:28;;;;;;;4.30;1.60;;;23.50;1.00;;;;;;5095064;28;20165;-88
2023/09/14 12:05:55;;;;;;;2.88;1.65;;;23.80;1.00;;;;;;5094560;28;20164;-88
2023/09/14 12:08:21;;;;;;;5.53;1.95;;;24.10;99.90;;;;;;5093712;28;20184;-88
2023/09/14 12:10:53;;;;;;;2.15;1.67;;;24.20;1.00;;;;;;5093769;28;20171;-88
2023/09/14 12:13:18;;;;;;;2.90;1.60;;;24.50;1.00;;;;;;5094478;28;20711;-87
2023/09/14 12:15:46;;;;;;;4.15;1.80;;;24.50;99.90;;;;;;5093142;28;20278;-88
2023/09/14 12:18:13;;;;;;;4.75;1.70;;;24.30;99.90;;;;;;5094622;28;20184;-88
2023/09/14 12:20:41;;;;;;;2.40;1.52;;;24.20;99.90;;;;;;5093054;28;20173;-88
2023/09/14 12:23:07;;;;;;;2.65;1.70;;;24.50;99.90;;;;;;5095150;28;20164;-88
2023/09/14 12:25:33;;;;;;;2.38;1.60;;;24.80;99.90;;;;;;5093973;28;20180;-88
2023/09/14 12:28:03;;;;;;;5.15;1.70;;;25.00;99.90;;;;;;5094974;28;20234;-88
2023/09/14 12:30:29;;;;;;;4.03;1.67;;;25.00;99.90;;;;;;5094804;28;20636;-88
2023/09/14 12:32:55;;;;;;;4.35;1.70;;;25.00;99.90;;;;;;5093590;28;20628;-87
2023/09/14 12:35:21;;;;;;;2.90;1.65;;;25.30;99.90;;;;;;5093706;28;20168;-87
2023/09/14 12:37:48;;;;;;;3.72;2.00;;;24.80;99.90;;;;;;5094569;28;20192;-88
2023/09/14 12:40:14;;;;;;;4.75;1.90;;;24.30;99.90;;;;;;5093555;28;20176;-88
2023/09/14 12:42:42;;;;;;;3.30;1.48;;;24.10;99.90;;;;;;5094765;28;20168;-88
2023/09/14 12:45:14;;;;;;;3.38;1.60;;;23.90;99.90;;;;;;5093808;28;20172;-88
2023/09/14 12:47:41;;;;;;;2.88;1.60;;;23.90;99.90;;;;;;5094818;28;20192;-87
2023/09/14 12:50:15;;;;;;;3.38;1.70;;;23.90;1.00;;;;;;5093649;28;20187;-88